sensor_id;sensor_type;location;lat;lon;timestamp;temperature;humidity
18712;DHT22;9485;49.386;8.674;2022-08-21T00:01:51;21.30;48.20
18712;DHT22;9485;49.386;8.674;2022-08-21T00:07:14;21.20;48.30
18712;DHT22;9485;49.386;8.674;2022-08-21T00:12:35;21.10;48.60
18712;DHT22;9485;49.386;8.674;2022-08-21T00:17:56;21.10;48.60
18712;DHT22;9485;49.386;8.674;2022-08-21T00:23:19;21.00;48.90
18712;DHT22;9485;49.386;8.674;2022-08-21T00:28:40;21.00;49.10
18712;DHT22;9485;49.386;8.674;2022-08-21T00:34:01;20.90;49.00
18712;DHT22;9485;49.386;8.674;2022-08-21T00:39:22;20.80;49.00
18712;DHT22;9485;49.386;8.674;2022-08-21T00:44:44;20.80;49.30
18712;DHT22;9485;49.386;8.674;2022-08-21T00:50:12;20.70;49.40
18712;DHT22;9485;49.386;8.674;2022-08-21T00:55:36;20.60;49.60
18712;DHT22;9485;49.386;8.674;2022-08-21T01:00:58;20.60;49.90
18712;DHT22;9485;49.386;8.674;2022-08-21T01:06:21;20.50;49.80
18712;DHT22;9485;49.386;8.674;2022-08-21T01:11:43;20.50;49.90
18712;DHT22;9485;49.386;8.674;2022-08-21T01:17:04;20.40;50.10
18712;DHT22;9485;49.386;8.674;2022-08-21T01:22:27;20.40;50.70
18712;DHT22;9485;49.386;8.674;2022-08-21T01:27:48;20.20;51.60
18712;DHT22;9485;49.386;8.674;2022-08-21T01:33:09;19.80;52.00
18712;DHT22;9485;49.386;8.674;2022-08-21T01:38:31;19.50;52.60
18712;DHT22;9485;49.386;8.674;2022-08-21T01:43:52;19.20;53.70
18712;DHT22;9485;49.386;8.674;2022-08-21T01:49:13;19.00;54.30
18712;DHT22;9485;49.386;8.674;2022-08-21T01:54:36;18.70;54.90
18712;DHT22;9485;49.386;8.674;2022-08-21T01:59:57;18.60;55.60
18712;DHT22;9485;49.386;8.674;2022-08-21T02:05:18;18.40;56.00
18712;DHT22;9485;49.386;8.674;2022-08-21T02:10:41;18.40;56.70
18712;DHT22;9485;49.386;8.674;2022-08-21T02:16:02;18.30;57.10
18712;DHT22;9485;49.386;8.674;2022-08-21T02:21:23;18.20;57.20
18712;DHT22;9485;49.386;8.674;2022-08-21T02:26:46;18.10;57.50
18712;DHT22;9485;49.386;8.674;2022-08-21T02:32:06;18.10;58.10
18712;DHT22;9485;49.386;8.674;2022-08-21T02:37:27;18.10;58.40
18712;DHT22;9485;49.386;8.674;2022-08-21T02:42:50;18.10;58.60
18712;DHT22;9485;49.386;8.674;2022-08-21T02:48:13;18.10;59.00
18712;DHT22;9485;49.386;8.674;2022-08-21T02:53:38;18.10;59.30
18712;DHT22;9485;49.386;8.674;2022-08-21T02:59:00;18.00;59.30
18712;DHT22;9485;49.386;8.674;2022-08-21T03:04:20;18.00;59.40
18712;DHT22;9485;49.386;8.674;2022-08-21T03:09:41;18.00;59.50
18712;DHT22;9485;49.386;8.674;2022-08-21T03:15:05;18.00;59.90
18712;DHT22;9485;49.386;8.674;2022-08-21T03:20:28;17.90;60.10
18712;DHT22;9485;49.386;8.674;2022-08-21T03:25:51;18.00;60.20
18712;DHT22;9485;49.386;8.674;2022-08-21T03:31:13;18.00;60.40
18712;DHT22;9485;49.386;8.674;2022-08-21T03:36:33;18.00;60.70
18712;DHT22;9485;49.386;8.674;2022-08-21T03:41:54;18.00;60.70
18712;DHT22;9485;49.386;8.674;2022-08-21T03:47:15;18.00;61.60
18712;DHT22;9485;49.386;8.674;2022-08-21T03:52:36;18.00;61.30
18712;DHT22;9485;49.386;8.674;2022-08-21T03:57:56;18.00;61.30
18712;DHT22;9485;49.386;8.674;2022-08-21T04:03:19;18.00;61.50
18712;DHT22;9485;49.386;8.674;2022-08-21T04:08:41;18.00;61.70
18712;DHT22;9485;49.386;8.674;2022-08-21T04:14:02;18.00;61.70
18712;DHT22;9485;49.386;8.674;2022-08-21T04:19:24;17.90;61.60
18712;DHT22;9485;49.386;8.674;2022-08-21T04:24:45;17.90;61.80
18712;DHT22;9485;49.386;8.674;2022-08-21T04:30:07;17.80;61.70
18712;DHT22;9485;49.386;8.674;2022-08-21T04:35:30;17.80;61.90
18712;DHT22;9485;49.386;8.674;2022-08-21T04:40:51;17.70;62.20
18712;DHT22;9485;49.386;8.674;2022-08-21T04:46:13;17.70;62.40
18712;DHT22;9485;49.386;8.674;2022-08-21T04:51:36;17.70;62.50
18712;DHT22;9485;49.386;8.674;2022-08-21T04:57:00;17.70;62.70
18712;DHT22;9485;49.386;8.674;2022-08-21T05:02:25;17.60;62.90
18712;DHT22;9485;49.386;8.674;2022-08-21T05:07:48;17.70;63.20
18712;DHT22;9485;49.386;8.674;2022-08-21T05:13:09;17.70;63.60
18712;DHT22;9485;49.386;8.674;2022-08-21T05:18:31;17.80;63.70
18712;DHT22;9485;49.386;8.674;2022-08-21T05:23:53;17.80;64.80
18712;DHT22;9485;49.386;8.674;2022-08-21T05:29:14;17.90;64.50
18712;DHT22;9485;49.386;8.674;2022-08-21T05:34:37;18.10;64.70
18712;DHT22;9485;49.386;8.674;2022-08-21T05:40:00;18.20;64.90
18712;DHT22;9485;49.386;8.674;2022-08-21T05:45:21;18.30;65.10
18712;DHT22;9485;49.386;8.674;2022-08-21T05:50:43;18.50;65.10
18712;DHT22;9485;49.386;8.674;2022-08-21T05:56:06;18.60;65.20
18712;DHT22;9485;49.386;8.674;2022-08-21T06:01:27;18.70;64.80
18712;DHT22;9485;49.386;8.674;2022-08-21T06:06:48;19.00;64.70
18712;DHT22;9485;49.386;8.674;2022-08-21T06:12:11;19.20;64.60
18712;DHT22;9485;49.386;8.674;2022-08-21T06:17:33;19.40;64.20
18712;DHT22;9485;49.386;8.674;2022-08-21T06:22:53;19.60;64.00
18712;DHT22;9485;49.386;8.674;2022-08-21T06:28:16;19.90;63.80
18712;DHT22;9485;49.386;8.674;2022-08-21T06:33:36;20.10;63.50
18712;DHT22;9485;49.386;8.674;2022-08-21T06:38:57;20.30;63.30
18712;DHT22;9485;49.386;8.674;2022-08-21T06:44:19;20.50;63.00
18712;DHT22;9485;49.386;8.674;2022-08-21T06:49:40;20.90;63.20
18712;DHT22;9485;49.386;8.674;2022-08-21T06:55:03;21.40;63.20
18712;DHT22;9485;49.386;8.674;2022-08-21T07:00:27;21.90;62.10
18712;DHT22;9485;49.386;8.674;2022-08-21T07:05:48;22.40;61.70
18712;DHT22;9485;49.386;8.674;2022-08-21T07:11:12;23.10;61.80
18712;DHT22;9485;49.386;8.674;2022-08-21T07:16:36;24.00;60.10
18712;DHT22;9485;49.386;8.674;2022-08-21T07:21:59;24.90;59.30
18712;DHT22;9485;49.386;8.674;2022-08-21T07:27:21;25.80;58.50
18712;DHT22;9485;49.386;8.674;2022-08-21T07:32:43;26.80;58.10
18712;DHT22;9485;49.386;8.674;2022-08-21T07:38:04;27.80;56.70
18712;DHT22;9485;49.386;8.674;2022-08-21T07:43:25;28.60;55.70
18712;DHT22;9485;49.386;8.674;2022-08-21T07:48:48;29.30;54.50
18712;DHT22;9485;49.386;8.674;2022-08-21T07:54:09;30.00;52.90
18712;DHT22;9485;49.386;8.674;2022-08-21T07:59:29;30.70;52.80
18712;DHT22;9485;49.386;8.674;2022-08-21T08:04:52;31.20;51.70
18712;DHT22;9485;49.386;8.674;2022-08-21T08:10:13;31.80;50.50
18712;DHT22;9485;49.386;8.674;2022-08-21T08:15:34;32.40;50.00
18712;DHT22;9485;49.386;8.674;2022-08-21T08:20:57;32.90;49.50
18712;DHT22;9485;49.386;8.674;2022-08-21T08:26:18;33.40;47.80
18712;DHT22;9485;49.386;8.674;2022-08-21T08:31:39;33.90;47.70
18712;DHT22;9485;49.386;8.674;2022-08-21T08:37:01;34.30;46.90
18712;DHT22;9485;49.386;8.674;2022-08-21T08:42:25;34.80;45.70
18712;DHT22;9485;49.386;8.674;2022-08-21T08:47:52;35.30;45.50
18712;DHT22;9485;49.386;8.674;2022-08-21T08:53:22;35.90;45.00
18712;DHT22;9485;49.386;8.674;2022-08-21T08:58:47;36.50;43.20
18712;DHT22;9485;49.386;8.674;2022-08-21T09:04:11;36.90;44.30
18712;DHT22;9485;49.386;8.674;2022-08-21T09:09:44;37.40;43.70
18712;DHT22;9485;49.386;8.674;2022-08-21T09:15:20;38.00;39.70
18712;DHT22;9485;49.386;8.674;2022-08-21T09:21:11;38.20;41.00
18712;DHT22;9485;49.386;8.674;2022-08-21T09:26:45;38.40;38.60
18712;DHT22;9485;49.386;8.674;2022-08-21T09:32:17;38.70;39.40
18712;DHT22;9485;49.386;8.674;2022-08-21T09:37:50;39.00;39.10
18712;DHT22;9485;49.386;8.674;2022-08-21T09:43:18;39.30;38.30
18712;DHT22;9485;49.386;8.674;2022-08-21T09:48:44;39.60;38.70
18712;DHT22;9485;49.386;8.674;2022-08-21T09:54:15;39.80;38.20
18712;DHT22;9485;49.386;8.674;2022-08-21T09:59:39;39.80;36.50
18712;DHT22;9485;49.386;8.674;2022-08-21T10:05:03;40.00;37.40
18712;DHT22;9485;49.386;8.674;2022-08-21T10:10:31;40.20;37.50
18712;DHT22;9485;49.386;8.674;2022-08-21T10:16:10;40.50;35.70
18712;DHT22;9485;49.386;8.674;2022-08-21T10:21:40;40.60;34.00
18712;DHT22;9485;49.386;8.674;2022-08-21T10:27:15;40.60;34.80
18712;DHT22;9485;49.386;8.674;2022-08-21T10:33:05;40.50;33.10
18712;DHT22;9485;49.386;8.674;2022-08-21T10:38:59;40.30;32.20
18712;DHT22;9485;49.386;8.674;2022-08-21T10:44:40;40.00;33.20
18712;DHT22;9485;49.386;8.674;2022-08-21T10:50:19;39.80;33.80
18712;DHT22;9485;49.386;8.674;2022-08-21T10:55:54;39.60;33.90
18712;DHT22;9485;49.386;8.674;2022-08-21T11:01:24;39.60;34.80
18712;DHT22;9485;49.386;8.674;2022-08-21T11:06:55;39.90;34.10
18712;DHT22;9485;49.386;8.674;2022-08-21T11:12:24;40.30;33.60
18712;DHT22;9485;49.386;8.674;2022-08-21T11:17:54;40.60;33.00
18712;DHT22;9485;49.386;8.674;2022-08-21T11:23:28;40.60;32.70
18712;DHT22;9485;49.386;8.674;2022-08-21T11:29:01;40.50;32.50
18712;DHT22;9485;49.386;8.674;2022-08-21T11:34:38;40.20;33.00
18712;DHT22;9485;49.386;8.674;2022-08-21T11:40:26;40.10;31.40
18712;DHT22;9485;49.386;8.674;2022-08-21T11:46:08;40.40;31.50
18712;DHT22;9485;49.386;8.674;2022-08-21T11:51:40;40.50;31.90
18712;DHT22;9485;49.386;8.674;2022-08-21T11:57:16;40.60;32.30
18712;DHT22;9485;49.386;8.674;2022-08-21T12:02:43;40.70;30.30
18712;DHT22;9485;49.386;8.674;2022-08-21T12:08:14;40.60;30.70
18712;DHT22;9485;49.386;8.674;2022-08-21T12:13:55;40.50;32.00
18712;DHT22;9485;49.386;8.674;2022-08-21T12:19:30;40.40;29.60
18712;DHT22;9485;49.386;8.674;2022-08-21T12:25:05;40.30;29.30
18712;DHT22;9485;49.386;8.674;2022-08-21T12:30:36;40.00;29.30
18712;DHT22;9485;49.386;8.674;2022-08-21T12:36:06;39.90;29.70
18712;DHT22;9485;49.386;8.674;2022-08-21T12:41:34;39.80;29.80
18712;DHT22;9485;49.386;8.674;2022-08-21T12:47:15;39.70;29.80
18712;DHT22;9485;49.386;8.674;2022-08-21T12:52:41;39.70;29.60
18712;DHT22;9485;49.386;8.674;2022-08-21T12:58:17;39.70;30.50
18712;DHT22;9485;49.386;8.674;2022-08-21T13:03:41;39.70;29.70
18712;DHT22;9485;49.386;8.674;2022-08-21T13:09:06;39.80;31.10
18712;DHT22;9485;49.386;8.674;2022-08-21T13:14:31;39.70;31.40
18712;DHT22;9485;49.386;8.674;2022-08-21T13:19:59;39.80;31.30
18712;DHT22;9485;49.386;8.674;2022-08-21T13:25:26;39.70;30.90
18712;DHT22;9485;49.386;8.674;2022-08-21T13:30:50;39.70;31.30
18712;DHT22;9485;49.386;8.674;2022-08-21T13:36:18;39.70;31.70
18712;DHT22;9485;49.386;8.674;2022-08-21T13:41:46;39.70;30.50
18712;DHT22;9485;49.386;8.674;2022-08-21T13:47:11;39.80;31.50
18712;DHT22;9485;49.386;8.674;2022-08-21T13:52:47;39.80;31.10
18712;DHT22;9485;49.386;8.674;2022-08-21T13:58:25;39.80;29.20
18712;DHT22;9485;49.386;8.674;2022-08-21T14:03:49;39.70;28.70
18712;DHT22;9485;49.386;8.674;2022-08-21T14:09:20;39.60;29.80
18712;DHT22;9485;49.386;8.674;2022-08-21T14:14:46;39.40;28.90
18712;DHT22;9485;49.386;8.674;2022-08-21T14:20:10;39.20;29.60
18712;DHT22;9485;49.386;8.674;2022-08-21T14:25:46;39.00;29.30
18712;DHT22;9485;49.386;8.674;2022-08-21T14:31:16;38.90;29.50
18712;DHT22;9485;49.386;8.674;2022-08-21T14:36:39;38.70;28.50
18712;DHT22;9485;49.386;8.674;2022-08-21T14:42:01;38.50;29.60
18712;DHT22;9485;49.386;8.674;2022-08-21T14:47:22;38.10;29.20
18712;DHT22;9485;49.386;8.674;2022-08-21T14:52:43;37.90;30.00
18712;DHT22;9485;49.386;8.674;2022-08-21T14:58:06;37.80;29.90
18712;DHT22;9485;49.386;8.674;2022-08-21T15:03:27;37.60;29.60
18712;DHT22;9485;49.386;8.674;2022-08-21T15:08:47;37.30;29.70
18712;DHT22;9485;49.386;8.674;2022-08-21T15:14:19;36.90;29.40
18712;DHT22;9485;49.386;8.674;2022-08-21T15:19:41;36.60;28.80
18712;DHT22;9485;49.386;8.674;2022-08-21T15:25:02;36.10;29.80
18712;DHT22;9485;49.386;8.674;2022-08-21T15:30:25;35.70;29.80
18712;DHT22;9485;49.386;8.674;2022-08-21T15:35:46;35.20;29.80
18712;DHT22;9485;49.386;8.674;2022-08-21T15:41:33;34.70;30.20
18712;DHT22;9485;49.386;8.674;2022-08-21T15:46:56;34.30;29.10
18712;DHT22;9485;49.386;8.674;2022-08-21T15:52:19;33.90;30.30
18712;DHT22;9485;49.386;8.674;2022-08-21T15:57:46;33.50;30.70
18712;DHT22;9485;49.386;8.674;2022-08-21T16:03:12;33.20;30.90
18712;DHT22;9485;49.386;8.674;2022-08-21T16:08:36;32.90;31.10
18712;DHT22;9485;49.386;8.674;2022-08-21T16:13:56;32.60;31.80
18712;DHT22;9485;49.386;8.674;2022-08-21T16:19:19;32.50;31.70
18712;DHT22;9485;49.386;8.674;2022-08-21T16:24:39;32.30;32.10
18712;DHT22;9485;49.386;8.674;2022-08-21T16:30:02;32.20;32.20
18712;DHT22;9485;49.386;8.674;2022-08-21T16:35:26;32.00;32.30
18712;DHT22;9485;49.386;8.674;2022-08-21T16:40:47;31.80;32.30
18712;DHT22;9485;49.386;8.674;2022-08-21T16:46:09;31.70;32.30
18712;DHT22;9485;49.386;8.674;2022-08-21T16:51:33;31.50;32.80
18712;DHT22;9485;49.386;8.674;2022-08-21T16:56:54;31.40;32.80
18712;DHT22;9485;49.386;8.674;2022-08-21T17:02:23;31.20;32.90
18712;DHT22;9485;49.386;8.674;2022-08-21T17:07:49;31.10;32.60
18712;DHT22;9485;49.386;8.674;2022-08-21T17:13:10;30.90;33.30
18712;DHT22;9485;49.386;8.674;2022-08-21T17:18:31;30.80;33.20
18712;DHT22;9485;49.386;8.674;2022-08-21T17:23:52;30.60;33.60
18712;DHT22;9485;49.386;8.674;2022-08-21T17:29:14;30.50;33.70
18712;DHT22;9485;49.386;8.674;2022-08-21T17:34:35;30.30;33.70
18712;DHT22;9485;49.386;8.674;2022-08-21T17:39:58;30.10;34.40
18712;DHT22;9485;49.386;8.674;2022-08-21T17:45:19;30.00;35.80
18712;DHT22;9485;49.386;8.674;2022-08-21T17:50:40;29.80;36.00
18712;DHT22;9485;49.386;8.674;2022-08-21T17:56:03;29.50;36.50
18712;DHT22;9485;49.386;8.674;2022-08-21T18:01:25;29.30;37.30
18712;DHT22;9485;49.386;8.674;2022-08-21T18:06:50;29.00;37.50
18712;DHT22;9485;49.386;8.674;2022-08-21T18:12:12;28.80;37.90
18712;DHT22;9485;49.386;8.674;2022-08-21T18:17:33;28.60;37.80
18712;DHT22;9485;49.386;8.674;2022-08-21T18:22:55;28.40;37.90
18712;DHT22;9485;49.386;8.674;2022-08-21T18:28:18;28.20;37.80
18712;DHT22;9485;49.386;8.674;2022-08-21T18:33:41;28.00;38.50
18712;DHT22;9485;49.386;8.674;2022-08-21T18:39:02;27.80;38.20
18712;DHT22;9485;49.386;8.674;2022-08-21T18:44:25;27.50;38.20
18712;DHT22;9485;49.386;8.674;2022-08-21T18:49:47;27.40;38.40
18712;DHT22;9485;49.386;8.674;2022-08-21T18:55:09;27.10;38.30
18712;DHT22;9485;49.386;8.674;2022-08-21T19:00:36;26.90;38.60
18712;DHT22;9485;49.386;8.674;2022-08-21T19:06:03;26.80;38.80
18712;DHT22;9485;49.386;8.674;2022-08-21T19:11:25;26.60;39.30
18712;DHT22;9485;49.386;8.674;2022-08-21T19:16:48;26.40;39.40
18712;DHT22;9485;49.386;8.674;2022-08-21T19:22:09;26.30;40.00
18712;DHT22;9485;49.386;8.674;2022-08-21T19:27:30;26.10;40.30
18712;DHT22;9485;49.386;8.674;2022-08-21T19:32:52;26.00;40.70
18712;DHT22;9485;49.386;8.674;2022-08-21T19:38:14;25.90;40.80
18712;DHT22;9485;49.386;8.674;2022-08-21T19:43:39;25.70;40.50
18712;DHT22;9485;49.386;8.674;2022-08-21T19:49:05;25.60;40.60
18712;DHT22;9485;49.386;8.674;2022-08-21T19:54:29;25.50;40.60
18712;DHT22;9485;49.386;8.674;2022-08-21T19:59:51;25.30;40.80
18712;DHT22;9485;49.386;8.674;2022-08-21T20:05:13;25.20;40.90
18712;DHT22;9485;49.386;8.674;2022-08-21T20:10:39;25.10;41.10
18712;DHT22;9485;49.386;8.674;2022-08-21T20:16:04;24.90;42.00
18712;DHT22;9485;49.386;8.674;2022-08-21T20:21:28;24.80;41.60
18712;DHT22;9485;49.386;8.674;2022-08-21T20:26:50;24.70;41.70
18712;DHT22;9485;49.386;8.674;2022-08-21T20:32:10;24.60;41.70
18712;DHT22;9485;49.386;8.674;2022-08-21T20:37:33;24.50;41.80
18712;DHT22;9485;49.386;8.674;2022-08-21T20:42:54;24.40;42.00
18712;DHT22;9485;49.386;8.674;2022-08-21T20:48:20;24.30;42.10
18712;DHT22;9485;49.386;8.674;2022-08-21T20:53:49;24.20;42.70
18712;DHT22;9485;49.386;8.674;2022-08-21T20:59:24;24.10;42.80
18712;DHT22;9485;49.386;8.674;2022-08-21T21:05:01;24.00;42.80
18712;DHT22;9485;49.386;8.674;2022-08-21T21:10:30;23.90;43.10
18712;DHT22;9485;49.386;8.674;2022-08-21T21:16:01;23.80;43.00
18712;DHT22;9485;49.386;8.674;2022-08-21T21:21:27;23.80;43.00
18712;DHT22;9485;49.386;8.674;2022-08-21T21:26:57;23.70;43.10
18712;DHT22;9485;49.386;8.674;2022-08-21T21:32:22;23.70;43.40
18712;DHT22;9485;49.386;8.674;2022-08-21T21:37:47;23.60;43.30
18712;DHT22;9485;49.386;8.674;2022-08-21T21:43:22;23.50;43.80
18712;DHT22;9485;49.386;8.674;2022-08-21T21:48:59;23.50;44.10
18712;DHT22;9485;49.386;8.674;2022-08-21T21:54:43;23.50;44.20
18712;DHT22;9485;49.386;8.674;2022-08-21T22:00:39;23.50;44.70
18712;DHT22;9485;49.386;8.674;2022-08-21T22:06:10;23.40;45.40
18712;DHT22;9485;49.386;8.674;2022-08-21T22:11:45;23.40;44.30
18712;DHT22;9485;49.386;8.674;2022-08-21T22:17:31;23.40;44.60
18712;DHT22;9485;49.386;8.674;2022-08-21T22:22:56;23.30;44.70
18712;DHT22;9485;49.386;8.674;2022-08-21T22:28:20;23.20;44.30
18712;DHT22;9485;49.386;8.674;2022-08-21T22:34:02;23.20;44.60
18712;DHT22;9485;49.386;8.674;2022-08-21T22:39:28;23.10;45.20
18712;DHT22;9485;49.386;8.674;2022-08-21T22:44:52;23.10;44.90
18712;DHT22;9485;49.386;8.674;2022-08-21T22:50:20;23.00;44.90
18712;DHT22;9485;49.386;8.674;2022-08-21T22:55:53;22.90;45.00
18712;DHT22;9485;49.386;8.674;2022-08-21T23:01:33;22.80;44.90
18712;DHT22;9485;49.386;8.674;2022-08-21T23:07:00;22.70;45.20
18712;DHT22;9485;49.386;8.674;2022-08-21T23:12:25;22.70;45.40
18712;DHT22;9485;49.386;8.674;2022-08-21T23:17:51;22.60;45.50
18712;DHT22;9485;49.386;8.674;2022-08-21T23:23:24;22.60;45.60
18712;DHT22;9485;49.386;8.674;2022-08-21T23:28:58;22.50;45.50
18712;DHT22;9485;49.386;8.674;2022-08-21T23:34:48;22.40;46.00
18712;DHT22;9485;49.386;8.674;2022-08-21T23:40:36;22.30;45.90
18712;DHT22;9485;49.386;8.674;2022-08-21T23:46:17;22.20;46.10
18712;DHT22;9485;49.386;8.674;2022-08-21T23:52:00;22.20;46.20
18712;DHT22;9485;49.386;8.674;2022-08-21T23:57:42;22.10;46.10
